Time;durP1;ratioP1;P1;durP2;ratioP2;P2;SDS_P1;SDS_P2;PMS_P1;PMS_P2;Temp;Humidity;BMP_temperature;BMP_pressure;BME280_temperature;BME280_humidity;BME280_pressure;Samples;Min_cycle;Max_cycle;Signal;HPM_P1;HPM_P2
2021/06/13 00:01:07;;;;;;;10.45;5.80;;;;;;;;;;5055780;28;20039;-82
2021/06/13 00:03:52;;;;;;;6.90;4.97;;;;;;;;;;5051377;28;20737;-82
2021/06/13 00:06:37;;;;;;;7.10;5.43;;;;;;;;;;5051906;28;20055;-81
2021/06/13 00:09:22;;;;;;;8.40;6.22;;;;;;;;;;5050683;28;20530;-82
2021/06/13 00:12:09;;;;;;;11.45;6.05;;;;;;;;;;5055261;28;20029;-83
2021/06/13 00:14:54;;;;;;;8.30;6.15;;;;;;;;;;5051086;28;20033;-81
2021/06/13 00:17:40;;;;;;;10.95;6.32;;;;;;;;;;5054069;28;20073;-80
2021/06/13 00:20:28;;;;;;;6.97;5.43;;;;;;;;;;5048605;28;20102;-81
2021/06/13 00:23:14;;;;;;;11.30;5.95;;;;;;;;;;5049972;28;20119;-81
2021/06/13 00:25:59;;;;;;;9.23;5.82;;;;;;;;;;5047895;28;20034;-80
2021/06/13 00:28:44;;;;;;;10.85;5.88;;;;;;;;;;5051591;28;20087;-81
2021/06/13 00:31:29;;;;;;;7.60;5.70;;;;;;;;;;5055955;28;20095;-81
2021/06/13 00:34:15;;;;;;;11.73;6.45;;;;;;;;;;5053912;28;20394;-82
2021/06/13 00:37:00;;;;;;;10.10;5.78;;;;;;;;;;5050743;28;20041;-82
2021/06/13 00:39:45;;;;;;;9.02;5.38;;;;;;;;;;5055564;28;20094;-82
2021/06/13 00:42:30;;;;;;;9.25;5.30;;;;;;;;;;5057204;28;20047;-82
2021/06/13 00:45:16;;;;;;;8.93;5.88;;;;;;;;;;5051612;28;20071;-81
2021/06/13 00:48:01;;;;;;;7.50;5.45;;;;;;;;;;5051573;28;20177;-81
2021/06/13 00:50:48;;;;;;;8.32;5.22;;;;;;;;;;5038337;28;20061;-82
2021/06/13 00:53:34;;;;;;;13.80;5.53;;;;;;;;;;5054175;28;20031;-83
2021/06/13 00:56:19;;;;;;;11.00;5.75;;;;;;;;;;5059653;28;20063;-82
2021/06/13 00:59:05;;;;;;;6.85;5.28;;;;;;;;;;5060210;28;20094;-81
2021/06/13 01:01:50;;;;;;;8.10;5.65;;;;;;;;;;5060011;28;20020;-81
2021/06/13 01:04:35;;;;;;;8.75;5.57;;;;;;;;;;5051452;28;20035;-81
2021/06/13 01:07:27;;;;;;;11.40;5.70;;;;;;;;;;5054347;28;20027;-82
2021/06/13 01:10:18;;;;;;;8.70;5.20;;;;;;;;;;5058248;28;20079;-83
2021/06/13 01:13:12;;;;;;;9.88;6.15;;;;;;;;;;5058648;28;20083;-82
2021/06/13 01:16:02;;;;;;;9.82;5.55;;;;;;;;;;5048533;28;20124;-82
2021/06/13 01:19:13;;;;;;;7.75;5.20;;;;;;;;;;5044811;28;20470;-82
2021/06/13 01:21:58;;;;;;;8.10;5.35;;;;;;;;;;5058651;28;20036;-81
2021/06/13 01:25:13;;;;;;;8.90;5.40;;;;;;;;;;5051823;28;20036;-81
2021/06/13 01:28:16;;;;;;;7.07;5.55;;;;;;;;;;4991469;28;20102;-81
2021/06/13 01:31:03;;;;;;;8.45;5.50;;;;;;;;;;5059343;28;20090;-81
2021/06/13 01:33:48;;;;;;;10.77;5.85;;;;;;;;;;5047288;28;20032;-82
2021/06/13 01:36:34;;;;;;;9.75;5.53;;;;;;;;;;5054812;28;20601;-81
2021/06/13 01:39:24;;;;;;;11.52;5.20;;;;;;;;;;5049584;28;20025;-82
2021/06/13 01:42:10;;;;;;;10.10;5.07;;;;;;;;;;5056440;28;20021;-81
2021/06/13 01:45:01;;;;;;;9.10;4.72;;;;;;;;;;5051848;28;20495;-82
2021/06/13 01:47:47;;;;;;;12.00;5.40;;;;;;;;;;5054852;28;20032;-81
2021/06/13 01:50:32;;;;;;;9.50;5.25;;;;;;;;;;5052978;28;20033;-81
2021/06/13 01:53:18;;;;;;;8.07;5.03;;;;;;;;;;5055773;28;20119;-81
2021/06/13 01:56:04;;;;;;;8.13;5.30;;;;;;;;;;5050059;28;20044;-82
2021/06/13 01:58:50;;;;;;;10.23;5.95;;;;;;;;;;5053114;28;20499;-82
2021/06/13 02:01:36;;;;;;;10.30;6.22;;;;;;;;;;5056591;28;20043;-82
2021/06/13 02:04:23;;;;;;;9.48;6.28;;;;;;;;;;5030770;28;20650;-81
2021/06/13 02:07:09;;;;;;;9.23;5.45;;;;;;;;;;5053630;28;20119;-81
2021/06/13 02:09:54;;;;;;;11.98;6.15;;;;;;;;;;5046652;28;20125;-82
2021/06/13 02:12:44;;;;;;;8.57;5.47;;;;;;;;;;5053078;28;20040;-80
2021/06/13 02:15:29;;;;;;;11.02;5.53;;;;;;;;;;5055826;28;20060;-81
2021/06/13 02:18:15;;;;;;;10.13;6.18;;;;;;;;;;5055668;28;20426;-81
2021/06/13 02:21:02;;;;;;;8.73;5.38;;;;;;;;;;5053031;28;20036;-82
2021/06/13 02:23:48;;;;;;;12.32;6.05;;;;;;;;;;5055083;28;20025;-81
2021/06/13 02:26:33;;;;;;;11.82;5.28;;;;;;;;;;5055887;28;20029;-81
2021/06/13 02:29:19;;;;;;;8.18;5.50;;;;;;;;;;5048662;28;20492;-81
2021/06/13 02:32:04;;;;;;;8.38;5.80;;;;;;;;;;5048203;28;20036;-81
2021/06/13 02:34:50;;;;;;;7.38;5.20;;;;;;;;;;5056743;28;20349;-81
2021/06/13 02:37:38;;;;;;;7.88;5.20;;;;;;;;;;5051923;28;20056;-81
2021/06/13 02:40:23;;;;;;;9.85;5.07;;;;;;;;;;5053116;28;20017;-82
2021/06/13 02:43:09;;;;;;;7.57;5.68;;;;;;;;;;5058995;28;20114;-81
2021/06/13 02:45:54;;;;;;;8.43;5.32;;;;;;;;;;5060052;28;20158;-79
2021/06/13 02:48:39;;;;;;;9.35;5.50;;;;;;;;;;5046742;28;20560;-79
2021/06/13 02:51:31;;;;;;;8.57;5.38;;;;;;;;;;5053705;28;20086;-79
2021/06/13 02:54:18;;;;;;;10.98;5.22;;;;;;;;;;5056158;28;20047;-79
2021/06/13 02:57:05;;;;;;;6.90;4.82;;;;;;;;;;5054976;28;20032;-79
2021/06/13 02:59:55;;;;;;;7.40;5.05;;;;;;;;;;5054248;28;20204;-80
2021/06/13 03:02:44;;;;;;;6.60;5.05;;;;;;;;;;5054593;28;20032;-80
2021/06/13 03:05:31;;;;;;;10.25;4.88;;;;;;;;;;5053161;28;20020;-80
2021/06/13 03:08:18;;;;;;;9.13;5.45;;;;;;;;;;5054970;28;20035;-80
2021/06/13 03:11:04;;;;;;;10.13;5.40;;;;;;;;;;5051007;28;20021;-80
2021/06/13 03:13:51;;;;;;;11.63;5.75;;;;;;;;;;5057440;28;20036;-79
2021/06/13 03:16:37;;;;;;;9.15;5.25;;;;;;;;;;5062526;28;20090;-80
2021/06/13 03:19:22;;;;;;;7.97;5.30;;;;;;;;;;5047477;28;20025;-80
2021/06/13 03:22:08;;;;;;;7.35;5.72;;;;;;;;;;5070067;28;20060;-80
2021/06/13 03:24:54;;;;;;;10.77;5.60;;;;;;;;;;5038125;28;20078;-80
2021/06/13 03:27:41;;;;;;;6.80;4.93;;;;;;;;;;5059405;28;20035;-80
2021/06/13 03:30:26;;;;;;;10.95;5.22;;;;;;;;;;5068241;28;20066;-80
2021/06/13 03:33:12;;;;;;;7.70;4.65;;;;;;;;;;5056865;28;20036;-80
2021/06/13 03:35:58;;;;;;;12.82;5.60;;;;;;;;;;5049661;28;20037;-80
2021/06/13 03:38:45;;;;;;;8.90;4.18;;;;;;;;;;5059346;28;20507;-80
2021/06/13 03:41:30;;;;;;;9.30;4.40;;;;;;;;;;5063160;28;20029;-80
2021/06/13 03:44:16;;;;;;;7.35;4.30;;;;;;;;;;5042932;28;20480;-80
2021/06/13 03:47:01;;;;;;;7.75;4.40;;;;;;;;;;5058037;28;20380;-81
2021/06/13 03:49:48;;;;;;;9.35;4.82;;;;;;;;;;5049268;28;20395;-81
2021/06/13 03:52:34;;;;;;;8.73;4.70;;;;;;;;;;5050103;28;20031;-81
2021/06/13 03:55:19;;;;;;;8.40;4.15;;;;;;;;;;5053298;28;20630;-81
2021/06/13 03:58:04;;;;;;;7.85;4.28;;;;;;;;;;5055888;28;20020;-81
2021/06/13 04:00:50;;;;;;;10.98;5.05;;;;;;;;;;5050658;28;20032;-80
2021/06/13 04:03:36;;;;;;;11.88;4.60;;;;;;;;;;5055570;28;20051;-80
2021/06/13 04:06:22;;;;;;;12.68;5.30;;;;;;;;;;5051877;28;20031;-80
2021/06/13 04:09:09;;;;;;;9.80;4.63;;;;;;;;;;5046475;28;20037;-81
2021/06/13 04:11:54;;;;;;;9.70;4.38;;;;;;;;;;5051546;28;20102;-80
2021/06/13 04:14:41;;;;;;;10.73;5.45;;;;;;;;;;5051193;28;20025;-79
2021/06/13 04:17:26;;;;;;;7.20;4.53;;;;;;;;;;5052945;28;20033;-80
2021/06/13 04:20:12;;;;;;;10.85;4.65;;;;;;;;;;5048439;28;20103;-80
2021/06/13 04:22:59;;;;;;;11.65;4.32;;;;;;;;;;5055219;28;20031;-79
2021/06/13 04:25:44;;;;;;;12.77;4.65;;;;;;;;;;5051890;28;20693;-80
2021/06/13 04:28:29;;;;;;;9.25;4.80;;;;;;;;;;5054142;28;20500;-80
2021/06/13 04:31:15;;;;;;;10.35;4.80;;;;;;;;;;5064684;28;20029;-80
2021/06/13 04:34:01;;;;;;;8.52;4.40;;;;;;;;;;5051216;28;20392;-82
2021/06/13 04:36:46;;;;;;;10.52;4.57;;;;;;;;;;5046720;28;20060;-82
2021/06/13 04:39:31;;;;;;;10.48;4.78;;;;;;;;;;5056634;28;20090;-81
2021/06/13 04:42:16;;;;;;;8.73;4.10;;;;;;;;;;5055341;28;20023;-81
2021/06/13 04:45:08;;;;;;;7.88;4.40;;;;;;;;;;5060122;28;20024;-82
2021/06/13 04:47:53;;;;;;;7.60;4.03;;;;;;;;;;5047003;28;20029;-82
2021/06/13 04:50:40;;;;;;;7.60;4.18;;;;;;;;;;5055042;28;20021;-82
2021/06/13 04:53:47;;;;;;;8.55;3.72;;;;;;;;;;5063341;28;20024;-83
2021/06/13 04:56:41;;;;;;;9.43;4.60;;;;;;;;;;5059287;28;20032;-82
2021/06/13 04:59:26;;;;;;;10.05;4.80;;;;;;;;;;5047861;28;20104;-81
2021/06/13 05:02:11;;;;;;;7.72;4.18;;;;;;;;;;5056041;28;20024;-81
2021/06/13 05:04:56;;;;;;;8.95;4.30;;;;;;;;;;5043638;28;20032;-81
2021/06/13 05:07:42;;;;;;;9.98;4.00;;;;;;;;;;5056639;28;20021;-80
2021/06/13 05:10:27;;;;;;;9.98;4.10;;;;;;;;;;5056947;28;20033;-81
2021/06/13 05:13:16;;;;;;;8.80;4.35;;;;;;;;;;5059685;28;20021;-80
2021/06/13 05:16:01;;;;;;;10.70;5.18;;;;;;;;;;5051643;28;20020;-80
2021/06/13 05:18:46;;;;;;;9.23;4.20;;;;;;;;;;5049495;28;20467;-79
2021/06/13 05:21:32;;;;;;;9.05;4.43;;;;;;;;;;5048308;28;20032;-80
2021/06/13 05:24:17;;;;;;;8.10;4.15;;;;;;;;;;5050177;28;20025;-81
2021/06/13 05:27:02;;;;;;;8.88;4.13;;;;;;;;;;5058742;28;20553;-79
2021/06/13 05:29:48;;;;;;;8.07;4.30;;;;;;;;;;5056270;28;20136;-80
2021/06/13 05:32:33;;;;;;;9.07;4.00;;;;;;;;;;5050769;28;20024;-80
2021/06/13 05:35:18;;;;;;;9.23;4.38;;;;;;;;;;5055062;28;20112;-80
2021/06/13 05:38:05;;;;;;;11.63;3.95;;;;;;;;;;5053494;28;20033;-79
2021/06/13 05:40:50;;;;;;;8.48;3.78;;;;;;;;;;5048874;28;20033;-79
2021/06/13 05:43:35;;;;;;;6.97;3.60;;;;;;;;;;5054227;28;20573;-79
2021/06/13 05:46:22;;;;;;;10.82;3.70;;;;;;;;;;5046855;28;20029;-80
2021/06/13 05:49:07;;;;;;;6.20;3.42;;;;;;;;;;5050506;28;20029;-80
2021/06/13 05:51:52;;;;;;;9.55;3.60;;;;;;;;;;5056973;28;20024;-80
2021/06/13 05:54:39;;;;;;;9.35;4.40;;;;;;;;;;5043797;28;20047;-81
2021/06/13 05:57:25;;;;;;;8.30;4.32;;;;;;;;;;5051859;28;20031;-80
2021/06/13 06:00:11;;;;;;;10.13;3.67;;;;;;;;;;5049162;28;20028;-80
2021/06/13 06:02:57;;;;;;;9.23;3.60;;;;;;;;;;5053040;28;20028;-80
2021/06/13 06:05:42;;;;;;;11.27;3.65;;;;;;;;;;5041094;28;20096;-80
2021/06/13 06:08:27;;;;;;;11.38;4.18;;;;;;;;;;5051204;28;20105;-80
2021/06/13 06:11:12;;;;;;;6.20;3.70;;;;;;;;;;5046775;28;20078;-80
2021/06/13 06:13:58;;;;;;;9.38;3.78;;;;;;;;;;5054680;28;20029;-81
2021/06/13 06:16:45;;;;;;;8.88;3.83;;;;;;;;;;5054118;28;20100;-81
2021/06/13 06:19:30;;;;;;;10.00;4.20;;;;;;;;;;5049384;28;20021;-80
2021/06/13 06:22:15;;;;;;;10.13;3.53;;;;;;;;;;5059904;28;20039;-81
2021/06/13 06:25:00;;;;;;;7.07;3.33;;;;;;;;;;5053449;28;20048;-82
2021/06/13 06:27:46;;;;;;;6.18;3.30;;;;;;;;;;5055662;28;20394;-80
2021/06/13 06:30:31;;;;;;;9.25;3.80;;;;;;;;;;5063762;28;20025;-80
2021/06/13 06:33:16;;;;;;;7.75;3.67;;;;;;;;;;5061025;28;20071;-80
2021/06/13 06:36:02;;;;;;;6.30;2.90;;;;;;;;;;5048933;28;20600;-80
2021/06/13 06:38:47;;;;;;;9.02;3.40;;;;;;;;;;5058817;28;20028;-80
2021/06/13 06:41:32;;;;;;;8.13;3.35;;;;;;;;;;5057301;28;20089;-82
2021/06/13 06:44:17;;;;;;;8.27;3.05;;;;;;;;;;5052092;28;21087;-82
2021/06/13 06:47:03;;;;;;;7.13;3.00;;;;;;;;;;5056082;28;20032;-81
2021/06/13 06:49:48;;;;;;;8.75;3.35;;;;;;;;;;5054354;28;20032;-82
2021/06/13 06:52:34;;;;;;;9.98;3.03;;;;;;;;;;5048366;28;20116;-81
2021/06/13 06:55:20;;;;;;;6.72;3.15;;;;;;;;;;5057637;28;20020;-81
2021/06/13 06:58:05;;;;;;;6.43;2.92;;;;;;;;;;5054800;28;20054;-79
2021/06/13 07:00:50;;;;;;;10.00;3.33;;;;;;;;;;5051575;28;20040;-80
2021/06/13 07:03:35;;;;;;;5.30;2.95;;;;;;;;;;5054529;28;20095;-81
2021/06/13 07:06:20;;;;;;;6.20;2.88;;;;;;;;;;5057450;28;20028;-80
2021/06/13 07:09:06;;;;;;;8.45;3.38;;;;;;;;;;5056525;28;20036;-79
2021/06/13 07:11:51;;;;;;;7.40;3.00;;;;;;;;;;5050576;28;20029;-80
2021/06/13 07:14:36;;;;;;;7.55;3.42;;;;;;;;;;5054925;28;20126;-79
2021/06/13 07:17:21;;;;;;;5.78;2.80;;;;;;;;;;5046033;28;20036;-79
2021/06/13 07:20:07;;;;;;;6.60;3.03;;;;;;;;;;5051397;28;20021;-80
2021/06/13 07:22:52;;;;;;;6.93;3.22;;;;;;;;;;5049432;28;20028;-79
2021/06/13 07:25:37;;;;;;;8.05;5.72;;;;;;;;;;5056348;28;20013;-80
2021/06/13 07:28:23;;;;;;;7.60;3.85;;;;;;;;;;5057372;28;20113;-79
2021/06/13 07:31:08;;;;;;;6.53;3.17;;;;;;;;;;5047327;28;20025;-80
2021/06/13 07:33:54;;;;;;;7.47;2.80;;;;;;;;;;5049589;28;20132;-79
2021/06/13 07:36:39;;;;;;;5.75;2.97;;;;;;;;;;5057338;28;20119;-79
2021/06/13 07:39:24;;;;;;;9.27;3.78;;;;;;;;;;5055932;28;20173;-79
2021/06/13 07:42:09;;;;;;;6.25;3.22;;;;;;;;;;5048051;28;20033;-81
2021/06/13 07:44:55;;;;;;;7.63;3.42;;;;;;;;;;5052874;28;20033;-80
2021/06/13 07:47:40;;;;;;;9.77;3.97;;;;;;;;;;5053509;28;20021;-77
2021/06/13 07:50:26;;;;;;;8.23;3.92;;;;;;;;;;5053293;28;20210;-78
2021/06/13 07:53:11;;;;;;;13.20;6.73;;;;;;;;;;5054860;28;20107;-77
2021/06/13 07:55:56;;;;;;;6.97;3.53;;;;;;;;;;5056104;28;20029;-84
2021/06/13 07:58:42;;;;;;;7.32;3.60;;;;;;;;;;5050349;28;20481;-81
2021/06/13 08:01:27;;;;;;;6.55;3.78;;;;;;;;;;5054500;28;20025;-77
2021/06/13 08:04:12;;;;;;;8.02;3.25;;;;;;;;;;5049275;28;20036;-78
2021/06/13 08:06:57;;;;;;;16.35;5.78;;;;;;;;;;5050643;28;20059;-77
2021/06/13 08:09:42;;;;;;;14.32;5.60;;;;;;;;;;5051805;28;20078;-84
2021/06/13 08:12:28;;;;;;;8.77;3.60;;;;;;;;;;5049817;28;20370;-82
2021/06/13 08:15:13;;;;;;;9.38;3.97;;;;;;;;;;5051012;28;20403;-80
2021/06/13 08:17:58;;;;;;;8.32;4.85;;;;;;;;;;5047796;28;20108;-80
2021/06/13 08:20:44;;;;;;;11.80;3.50;;;;;;;;;;5048695;28;20355;-81
2021/06/13 08:23:31;;;;;;;9.15;3.80;;;;;;;;;;5059871;28;20036;-86
2021/06/13 08:26:16;;;;;;;19.52;6.05;;;;;;;;;;5058812;28;20025;-82
2021/06/13 08:29:02;;;;;;;7.82;3.22;;;;;;;;;;5050414;28;20025;-83
2021/06/13 08:31:47;;;;;;;13.18;4.15;;;;;;;;;;5055396;28;20029;-81
2021/06/13 08:34:33;;;;;;;20.77;6.15;;;;;;;;;;5050126;28;20020;-82
2021/06/13 08:37:18;;;;;;;16.10;5.93;;;;;;;;;;5051972;28;20063;-81
2021/06/13 08:40:07;;;;;;;9.25;4.10;;;;;;;;;;5049417;28;20690;-81
2021/06/13 08:42:52;;;;;;;17.00;5.07;;;;;;;;;;5063408;28;20111;-79
2021/06/13 08:45:38;;;;;;;8.15;3.50;;;;;;;;;;5054022;28;20037;-81
2021/06/13 08:48:25;;;;;;;4.60;2.03;;;;;;;;;;5045937;28;20082;-88
2021/06/13 08:51:11;;;;;;;5.05;3.05;;;;;;;;;;5057137;28;20108;-87
2021/06/13 08:53:56;;;;;;;7.47;3.17;;;;;;;;;;5063122;28;20423;-86
2021/06/13 08:56:42;;;;;;;9.77;4.38;;;;;;;;;;5052452;28;20079;-88
2021/06/13 08:59:27;;;;;;;19.10;13.20;;;;;;;;;;5056076;28;20021;-87
2021/06/13 09:02:13;;;;;;;9.05;4.03;;;;;;;;;;5055768;28;20016;-88
2021/06/13 09:04:59;;;;;;;6.35;3.15;;;;;;;;;;5054350;28;20044;-89
2021/06/13 09:07:50;;;;;;;7.35;3.17;;;;;;;;;;5057828;28;20045;-90
2021/06/13 09:10:36;;;;;;;8.13;3.00;;;;;;;;;;5055429;28;20467;-91
2021/06/13 09:13:22;;;;;;;7.70;2.83;;;;;;;;;;5056466;28;20064;-91
2021/06/13 09:16:07;;;;;;;6.45;3.03;;;;;;;;;;5065805;28;20025;-90
2021/06/13 09:18:52;;;;;;;7.25;3.05;;;;;;;;;;5054861;28;20028;-91
2021/06/13 09:21:39;;;;;;;8.05;2.65;;;;;;;;;;5053866;28;20048;-92
2021/06/13 09:24:25;;;;;;;7.82;3.50;;;;;;;;;;5060788;28;20023;-90
2021/06/13 09:27:11;;;;;;;6.32;2.80;;;;;;;;;;5068936;28;20036;-91
2021/06/13 09:29:56;;;;;;;7.18;3.42;;;;;;;;;;5059359;28;20048;-90
2021/06/13 09:33:01;;;;;;;7.20;2.60;;;;;;;;;;5056415;28;20040;-91
2021/06/13 09:35:47;;;;;;;6.30;3.13;;;;;;;;;;5060799;28;20048;-90
2021/06/13 09:38:33;;;;;;;5.97;2.60;;;;;;;;;;5051269;28;20064;-91
2021/06/13 09:41:22;;;;;;;9.57;3.00;;;;;;;;;;5060452;28;20473;-91
2021/06/13 09:44:08;;;;;;;6.72;2.50;;;;;;;;;;5058246;28;20247;-90
2021/06/13 09:46:57;;;;;;;8.30;3.20;;;;;;;;;;5064941;28;20024;-91
2021/06/13 09:53:18;;;;;;;6.07;2.65;;;;;;;;;;5051468;28;20009;-92
2021/06/13 09:56:24;;;;;;;5.22;2.50;;;;;;;;;;5075602;28;20052;-91
2021/06/13 09:59:14;;;;;;;5.15;2.58;;;;;;;;;;5068244;28;20017;-92
2021/06/13 10:02:00;;;;;;;7.43;3.60;;;;;;;;;;5067131;28;20070;-91
2021/06/13 10:04:45;;;;;;;5.07;2.97;;;;;;;;;;5064241;28;20467;-91
2021/06/13 10:07:33;;;;;;;7.82;2.80;;;;;;;;;;5064253;28;20020;-92
2021/06/13 10:10:40;;;;;;;5.23;3.00;;;;;;;;;;5046667;28;20037;-92
2021/06/13 10:13:39;;;;;;;8.27;5.43;;;;;;;;;;5065798;28;20025;-88
2021/06/13 10:16:30;;;;;;;14.52;10.73;;;;;;;;;;5062289;28;20565;-86
2021/06/13 10:19:17;;;;;;;4.90;3.00;;;;;;;;;;5064692;28;20580;-90
2021/06/13 10:22:03;;;;;;;7.43;2.92;;;;;;;;;;5064966;28;20017;-92
2021/06/13 10:24:49;;;;;;;5.50;2.53;;;;;;;;;;5058285;28;20094;-90
2021/06/13 10:27:35;;;;;;;5.68;2.35;;;;;;;;;;5061867;28;20025;-89
2021/06/13 10:30:22;;;;;;;5.32;2.28;;;;;;;;;;5059933;28;20480;-91
2021/06/13 10:33:08;;;;;;;5.25;2.17;;;;;;;;;;5052844;28;20032;-90
2021/06/13 10:35:59;;;;;;;3.60;2.17;;;;;;;;;;5064747;28;20506;-90
2021/06/13 10:38:44;;;;;;;6.20;3.22;;;;;;;;;;5049612;28;20522;-91
2021/06/13 10:41:30;;;;;;;8.95;4.43;;;;;;;;;;5054000;28;20115;-90
2021/06/13 10:44:17;;;;;;;14.25;4.50;;;;;;;;;;5052314;28;20160;-90
2021/06/13 10:47:11;;;;;;;6.57;2.70;;;;;;;;;;5073574;28;20025;-89
2021/06/13 10:49:56;;;;;;;6.82;2.40;;;;;;;;;;5040709;28;20048;-89
2021/06/13 10:52:58;;;;;;;5.43;2.08;;;;;;;;;;5038695;28;20013;-89
2021/06/13 10:55:51;;;;;;;5.70;2.10;;;;;;;;;;5041071;28;20121;-90
2021/06/13 10:58:50;;;;;;;6.15;2.47;;;;;;;;;;5027807;28;20024;-90
2021/06/13 11:01:38;;;;;;;9.02;3.10;;;;;;;;;;5043358;28;20098;-89
2021/06/13 11:04:45;;;;;;;9.32;3.75;;;;;;;;;;5071167;28;20031;-89
2021/06/13 11:07:38;;;;;;;4.63;2.65;;;;;;;;;;5041147;28;20017;-90
2021/06/13 11:10:28;;;;;;;4.88;2.55;;;;;;;;;;5042357;28;20031;-90
2021/06/13 11:13:24;;;;;;;4.50;2.00;;;;;;;;;;5060029;28;20031;-89
2021/06/13 11:16:13;;;;;;;6.47;2.35;;;;;;;;;;5032568;28;20249;-90
2021/06/13 11:19:17;;;;;;;5.75;2.15;;;;;;;;;;5043021;28;20036;-89
2021/06/13 11:22:18;;;;;;;6.00;2.28;;;;;;;;;;5041762;28;20383;-89
2021/06/13 11:25:17;;;;;;;5.00;2.67;;;;;;;;;;5039098;28;20024;-90
2021/06/13 11:28:13;;;;;;;8.70;2.80;;;;;;;;;;5051326;28;20020;-87
2021/06/13 11:31:08;;;;;;;9.05;5.18;;;;;;;;;;5051929;28;20098;-89
2021/06/13 11:33:54;;;;;;;9.45;3.60;;;;;;;;;;5050151;28;20056;-90
2021/06/13 11:36:41;;;;;;;5.47;2.92;;;;;;;;;;5032891;28;20376;-89
2021/06/13 11:39:28;;;;;;;9.90;6.03;;;;;;;;;;5026686;28;20020;-89
2021/06/13 11:42:13;;;;;;;4.13;2.38;;;;;;;;;;5022965;28;20110;-89
2021/06/13 11:44:59;;;;;;;7.72;2.63;;;;;;;;;;5022889;28;20514;-90
2021/06/13 11:47:44;;;;;;;8.25;3.03;;;;;;;;;;5015517;28;20037;-92
2021/06/13 11:50:48;;;;;;;6.70;2.40;;;;;;;;;;5034416;28;20183;-90
2021/06/13 11:53:47;;;;;;;4.28;2.17;;;;;;;;;;5026924;28;20029;-89
2021/06/13 11:56:36;;;;;;;6.68;2.67;;;;;;;;;;5025051;28;20537;-91
2021/06/13 11:59:22;;;;;;;5.93;3.10;;;;;;;;;;5024631;28;20036;-90
2021/06/13 12:02:12;;;;;;;15.50;9.38;;;;;;;;;;5007640;28;20022;-89
2021/06/13 12:05:02;;;;;;;4.78;2.53;;;;;;;;;;5019705;28;20086;-90
2021/06/13 12:07:48;;;;;;;11.00;2.53;;;;;;;;;;5026532;28;20059;-91
2021/06/13 12:10:38;;;;;;;4.60;2.30;;;;;;;;;;5025581;28;20040;-90
2021/06/13 12:13:26;;;;;;;8.90;2.78;;;;;;;;;;5015610;28;20083;-91
2021/06/13 12:16:15;;;;;;;6.32;2.45;;;;;;;;;;5028110;28;20029;-91
2021/06/13 12:19:03;;;;;;;6.35;2.20;;;;;;;;;;5033665;28;20467;-90
2021/06/13 12:21:49;;;;;;;7.15;2.33;;;;;;;;;;5015379;28;20028;-90
2021/06/13 12:27:21;;;;;;;4.95;2.30;;;;;;;;;;5029831;28;20025;-89
2021/06/13 12:27:43;;;;;;;7.10;1.98;;;;;;;;;;5038093;28;20021;-90
2021/06/13 12:30:29;;;;;;;4.68;1.85;;;;;;;;;;5031127;28;20383;-89
2021/06/13 12:33:14;;;;;;;6.03;2.10;;;;;;;;;;5017044;28;20111;-90
2021/06/13 12:35:59;;;;;;;5.22;2.05;;;;;;;;;;5029123;28;20063;-89
2021/06/13 12:38:45;;;;;;;4.93;2.30;;;;;;;;;;5045298;28;20043;-90
2021/06/13 12:41:30;;;;;;;3.67;1.70;;;;;;;;;;5047133;28;20021;-89
2021/06/13 12:44:15;;;;;;;3.75;1.80;;;;;;;;;;5039220;28;20493;-89
2021/06/13 12:47:02;;;;;;;6.13;2.10;;;;;;;;;;5048490;28;20026;-90
2021/06/13 12:49:48;;;;;;;5.70;2.28;;;;;;;;;;5040438;28;20074;-89
2021/06/13 12:52:34;;;;;;;8.40;5.07;;;;;;;;;;5048846;28;20390;-89
2021/06/13 12:55:20;;;;;;;5.53;2.50;;;;;;;;;;5032494;28;20021;-90
2021/06/13 12:58:11;;;;;;;6.72;2.20;;;;;;;;;;5049622;28;20017;-89
2021/06/13 13:00:57;;;;;;;5.75;2.10;;;;;;;;;;5045779;28;20390;-89
2021/06/13 13:03:45;;;;;;;4.88;1.92;;;;;;;;;;5046745;28;20017;-89
2021/06/13 13:06:45;;;;;;;3.15;1.73;;;;;;;;;;5054898;28;20029;-89
2021/06/13 13:09:31;;;;;;;3.90;2.17;;;;;;;;;;5063829;28;20062;-89
2021/06/13 13:12:20;;;;;;;2.95;2.40;;;;;;;;;;5047507;28;20025;-90
2021/06/13 13:15:06;;;;;;;;;;;;;;;;;;5052677;28;20468;-89
2021/06/13 13:17:53;;;;;;;3.53;2.10;;;;;;;;;;5037947;28;19912;-90
2021/06/13 13:20:39;;;;;;;5.30;1.92;;;;;;;;;;5027222;28;20021;-89
2021/06/13 13:23:25;;;;;;;5.47;2.08;;;;;;;;;;5045016;28;20023;-89
2021/06/13 13:26:11;;;;;;;5.47;1.88;;;;;;;;;;5066227;28;20491;-88
2021/06/13 13:28:58;;;;;;;3.65;2.00;;;;;;;;;;5023576;28;20037;-89
2021/06/13 13:31:43;;;;;;;6.75;2.30;;;;;;;;;;5041653;28;20028;-89
2021/06/13 13:34:32;;;;;;;3.63;2.10;;;;;;;;;;5048573;28;20650;-90
2021/06/13 13:37:18;;;;;;;;;;;;;;;;;;5069111;28;20045;-89
2021/06/13 13:40:08;;;;;;;7.00;3.70;;;;;;;;;;5049536;28;19955;-90
2021/06/13 13:42:56;;;;;;;3.10;1.80;;;;;;;;;;5072062;28;20111;-89
2021/06/13 13:45:42;;;;;;;3.70;1.70;;;;;;;;;;5059720;28;20875;-89
2021/06/13 13:48:28;;;;;;;3.50;1.80;;;;;;;;;;5068209;28;20028;-90
2021/06/13 13:51:13;;;;;;;5.57;1.80;;;;;;;;;;5049736;28;20092;-89
2021/06/13 13:53:59;;;;;;;4.78;1.90;;;;;;;;;;5064780;28;20029;-90
2021/06/13 13:56:48;;;;;;;5.10;2.78;;;;;;;;;;5062589;28;20308;-88
2021/06/13 13:59:35;;;;;;;7.30;3.47;;;;;;;;;;5062876;28;20016;-89
2021/06/13 14:02:20;;;;;;;3.90;2.00;;;;;;;;;;5051331;28;20106;-90
2021/06/13 14:05:06;;;;;;;3.58;1.98;;;;;;;;;;5058777;28;20331;-90
2021/06/13 14:07:51;;;;;;;4.65;1.88;;;;;;;;;;5062424;28;20037;-89
2021/06/13 14:10:36;;;;;;;4.45;1.85;;;;;;;;;;5059997;28;20052;-90
2021/06/13 14:13:22;;;;;;;4.07;2.03;;;;;;;;;;5040241;28;20112;-88
2021/06/13 14:16:07;;;;;;;7.47;3.40;;;;;;;;;;5038893;28;20100;-89
2021/06/13 14:18:53;;;;;;;6.90;2.65;;;;;;;;;;5056435;28;20032;-89
2021/06/13 14:21:38;;;;;;;6.80;1.83;;;;;;;;;;5042296;28;20017;-89
2021/06/13 14:24:24;;;;;;;4.65;2.40;;;;;;;;;;5040098;28;20025;-89
2021/06/13 14:27:09;;;;;;;9.55;6.22;;;;;;;;;;5038829;28;20476;-89
2021/06/13 14:29:54;;;;;;;7.10;3.90;;;;;;;;;;5038532;28;20064;-89
2021/06/13 14:32:41;;;;;;;11.05;8.35;;;;;;;;;;5041284;28;20080;-91
2021/06/13 14:35:26;;;;;;;8.18;5.05;;;;;;;;;;5040610;28;20071;-90
2021/06/13 14:38:12;;;;;;;6.10;2.28;;;;;;;;;;5063396;28;20098;-90
2021/06/13 14:40:58;;;;;;;7.05;3.38;;;;;;;;;;5043471;28;20491;-91
2021/06/13 14:43:43;;;;;;;6.72;2.40;;;;;;;;;;5051332;28;20024;-90
2021/06/13 14:46:29;;;;;;;7.15;3.88;;;;;;;;;;5053918;28;20023;-91
2021/06/13 14:49:14;;;;;;;5.72;2.67;;;;;;;;;;5050214;28;20067;-90
2021/06/13 14:52:00;;;;;;;3.67;1.75;;;;;;;;;;5041878;28;20024;-90
2021/06/13 14:54:46;;;;;;;3.75;2.40;;;;;;;;;;5042378;28;20021;-90
2021/06/13 14:57:32;;;;;;;6.30;4.65;;;;;;;;;;5044783;28;20508;-90
2021/06/13 15:00:18;;;;;;;16.50;12.00;;;;;;;;;;5048235;28;20024;-89
2021/06/13 15:03:04;;;;;;;8.48;2.40;;;;;;;;;;5052216;28;20032;-91
2021/06/13 15:05:50;;;;;;;4.80;1.98;;;;;;;;;;5040703;28;20059;-91
2021/06/13 15:08:42;;;;;;;4.45;2.25;;;;;;;;;;5042593;28;20055;-90
2021/06/13 15:11:32;;;;;;;4.75;2.20;;;;;;;;;;5037136;28;20024;-91
2021/06/13 15:14:17;;;;;;;4.80;1.73;;;;;;;;;;5042873;28;20087;-90
2021/06/13 15:17:03;;;;;;;3.53;1.90;;;;;;;;;;5046397;28;20438;-90
2021/06/13 15:19:51;;;;;;;5.70;2.10;;;;;;;;;;5042493;28;20113;-90
2021/06/13 15:22:38;;;;;;;4.53;1.67;;;;;;;;;;5048678;28;20013;-90
2021/06/13 15:25:24;;;;;;;2.97;1.60;;;;;;;;;;5047265;28;20111;-90
2021/06/13 15:28:09;;;;;;;2.90;1.83;;;;;;;;;;5045886;28;20029;-90
2021/06/13 15:30:55;;;;;;;3.20;2.20;;;;;;;;;;5048234;28;20033;-89
2021/06/13 15:33:41;;;;;;;2.63;1.60;;;;;;;;;;5039042;28;20024;-90
2021/06/13 15:36:29;;;;;;;2.50;1.23;;;;;;;;;;5022960;28;20052;-90
2021/06/13 15:39:15;;;;;;;2.60;1.80;;;;;;;;;;5009674;28;20025;-90
2021/06/13 15:42:05;;;;;;;6.22;2.53;;;;;;;;;;5020619;28;20037;-90
2021/06/13 15:44:51;;;;;;;;;;;;;;;;;;5027672;28;20037;-90
2021/06/13 15:47:38;;;;;;;3.95;1.73;;;;;;;;;;5024242;28;19974;-90
2021/06/13 15:50:25;;;;;;;2.38;1.52;;;;;;;;;;5017970;28;20392;-90
2021/06/13 15:53:10;;;;;;;6.80;2.13;;;;;;;;;;5017004;28;20021;-90
2021/06/13 15:55:55;;;;;;;3.45;2.20;;;;;;;;;;5020606;28;20060;-90
2021/06/13 15:58:41;;;;;;;6.47;1.80;;;;;;;;;;5002184;28;20029;-90
2021/06/13 16:01:26;;;;;;;3.58;1.95;;;;;;;;;;5022720;28;20017;-90
2021/06/13 16:04:11;;;;;;;4.70;2.13;;;;;;;;;;5023229;28;20022;-90
2021/06/13 16:06:58;;;;;;;8.75;2.05;;;;;;;;;;5016548;28;20032;-90
2021/06/13 16:09:44;;;;;;;5.28;2.05;;;;;;;;;;5019886;28;20068;-91
2021/06/13 16:12:30;;;;;;;2.90;1.58;;;;;;;;;;5016658;28;20108;-90
2021/06/13 16:15:19;;;;;;;5.00;2.03;;;;;;;;;;5012433;28;20069;-91
2021/06/13 16:18:05;;;;;;;5.85;2.55;;;;;;;;;;5015855;28;20025;-91
2021/06/13 16:20:50;;;;;;;4.70;1.70;;;;;;;;;;5012857;28;20033;-90
2021/06/13 16:23:35;;;;;;;5.10;2.42;;;;;;;;;;5022873;28;20021;-91
2021/06/13 16:26:20;;;;;;;5.03;1.98;;;;;;;;;;5029338;28;20040;-90
2021/06/13 16:29:06;;;;;;;3.50;1.92;;;;;;;;;;5018575;28;20171;-90
2021/06/13 16:31:52;;;;;;;3.60;1.88;;;;;;;;;;5012516;28;20021;-90
2021/06/13 16:34:37;;;;;;;7.95;2.10;;;;;;;;;;5038502;28;20021;-90
2021/06/13 16:37:24;;;;;;;3.45;1.80;;;;;;;;;;5051404;28;20033;-90
2021/06/13 16:40:09;;;;;;;3.50;1.60;;;;;;;;;;5052558;28;20048;-90
2021/06/13 16:42:55;;;;;;;7.70;1.98;;;;;;;;;;5056483;28;20013;-90